sensor_id;sensor_type;location;lat;lon;timestamp;temperature;humidity
75281;HTU21D;63874;47.230;39.620;2023-09-30T00:01:10;16.99;50.85
75281;HTU21D;63874;47.230;39.620;2023-09-30T00:03:36;16.96;50.82
75281;HTU21D;63874;47.230;39.620;2023-09-30T00:06:03;16.95;50.95
75281;HTU21D;63874;47.230;39.620;2023-09-30T00:08:29;16.93;50.98
75281;HTU21D;63874;47.230;39.620;2023-09-30T00:10:56;16.90;51.14
75281;HTU21D;63874;47.230;39.620;2023-09-30T00:13:22;16.87;51.04
75281;HTU21D;63874;47.230;39.620;2023-09-30T00:15:48;16.87;51.15
75281;HTU21D;63874;47.230;39.620;2023-09-30T00:18:14;16.87;51.25
75281;HTU21D;63874;47.230;39.620;2023-09-30T00:20:40;16.85;51.35
75281;HTU21D;63874;47.230;39.620;2023-09-30T00:23:06;16.80;51.40
75281;HTU21D;63874;47.230;39.620;2023-09-30T00:25:35;16.81;51.47
75281;HTU21D;63874;47.230;39.620;2023-09-30T00:28:00;16.79;51.42
75281;HTU21D;63874;47.230;39.620;2023-09-30T00:30:26;16.74;51.61
75281;HTU21D;63874;47.230;39.620;2023-09-30T00:32:52;16.74;51.60
75281;HTU21D;63874;47.230;39.620;2023-09-30T00:35:18;16.70;51.68
75281;HTU21D;63874;47.230;39.620;2023-09-30T00:37:45;16.69;51.85
75281;HTU21D;63874;47.230;39.620;2023-09-30T00:40:11;16.63;51.86
75281;HTU21D;63874;47.230;39.620;2023-09-30T00:42:38;16.61;51.99
75281;HTU21D;63874;47.230;39.620;2023-09-30T00:45:05;16.56;52.06
75281;HTU21D;63874;47.230;39.620;2023-09-30T00:47:33;16.55;52.23
75281;HTU21D;63874;47.230;39.620;2023-09-30T00:50:01;16.50;52.26
75281;HTU21D;63874;47.230;39.620;2023-09-30T00:52:32;16.47;52.39
75281;HTU21D;63874;47.230;39.620;2023-09-30T00:55:02;16.45;52.50
75281;HTU21D;63874;47.230;39.620;2023-09-30T00:57:32;16.39;52.61
75281;HTU21D;63874;47.230;39.620;2023-09-30T01:00:00;16.36;52.75
75281;HTU21D;63874;47.230;39.620;2023-09-30T01:02:26;16.31;52.86
75281;HTU21D;63874;47.230;39.620;2023-09-30T01:04:56;16.29;52.95
75281;HTU21D;63874;47.230;39.620;2023-09-30T01:07:22;16.24;53.04
75281;HTU21D;63874;47.230;39.620;2023-09-30T01:09:51;16.19;53.14
75281;HTU21D;63874;47.230;39.620;2023-09-30T01:12:18;16.17;53.23
75281;HTU21D;63874;47.230;39.620;2023-09-30T01:14:44;16.15;53.25
75281;HTU21D;63874;47.230;39.620;2023-09-30T01:17:10;16.12;53.36
75281;HTU21D;63874;47.230;39.620;2023-09-30T01:19:40;16.11;53.52
75281;HTU21D;63874;47.230;39.620;2023-09-30T01:22:06;16.08;53.56
75281;HTU21D;63874;47.230;39.620;2023-09-30T01:24:41;16.07;53.65
75281;HTU21D;63874;47.230;39.620;2023-09-30T01:27:09;16.03;53.74
75281;HTU21D;63874;47.230;39.620;2023-09-30T01:29:35;16.03;53.88
75281;HTU21D;63874;47.230;39.620;2023-09-30T01:32:05;15.99;53.90
75281;HTU21D;63874;47.230;39.620;2023-09-30T01:34:36;15.98;53.94
75281;HTU21D;63874;47.230;39.620;2023-09-30T01:37:02;15.93;54.05
75281;HTU21D;63874;47.230;39.620;2023-09-30T01:39:30;15.93;54.14
75281;HTU21D;63874;47.230;39.620;2023-09-30T01:41:56;15.91;54.12
75281;HTU21D;63874;47.230;39.620;2023-09-30T01:44:22;15.86;54.23
75281;HTU21D;63874;47.230;39.620;2023-09-30T01:46:48;15.87;54.27
75281;HTU21D;63874;47.230;39.620;2023-09-30T01:49:14;15.85;54.29
75281;HTU21D;63874;47.230;39.620;2023-09-30T01:51:40;15.83;54.37
75281;HTU21D;63874;47.230;39.620;2023-09-30T01:54:05;15.81;54.39
75281;HTU21D;63874;47.230;39.620;2023-09-30T01:56:31;15.77;54.40
75281;HTU21D;63874;47.230;39.620;2023-09-30T01:58:59;15.75;54.49
75281;HTU21D;63874;47.230;39.620;2023-09-30T02:01:25;15.76;54.56
75281;HTU21D;63874;47.230;39.620;2023-09-30T02:03:52;15.76;54.81
75281;HTU21D;63874;47.230;39.620;2023-09-30T02:06:18;15.76;54.65
75281;HTU21D;63874;47.230;39.620;2023-09-30T02:08:44;15.77;54.79
75281;HTU21D;63874;47.230;39.620;2023-09-30T02:11:11;15.75;54.81
75281;HTU21D;63874;47.230;39.620;2023-09-30T02:13:40;15.72;54.87
75281;HTU21D;63874;47.230;39.620;2023-09-30T02:16:11;15.70;54.97
75281;HTU21D;63874;47.230;39.620;2023-09-30T02:18:38;15.68;54.99
75281;HTU21D;63874;47.230;39.620;2023-09-30T02:21:09;15.66;55.10
75281;HTU21D;63874;47.230;39.620;2023-09-30T02:23:35;15.65;55.13
75281;HTU21D;63874;47.230;39.620;2023-09-30T02:26:02;15.63;55.29
75281;HTU21D;63874;47.230;39.620;2023-09-30T02:28:29;15.62;55.30
75281;HTU21D;63874;47.230;39.620;2023-09-30T02:31:00;15.60;55.41
75281;HTU21D;63874;47.230;39.620;2023-09-30T02:33:27;15.57;55.38
75281;HTU21D;63874;47.230;39.620;2023-09-30T02:35:53;15.56;55.52
75281;HTU21D;63874;47.230;39.620;2023-09-30T02:38:19;15.56;55.49
75281;HTU21D;63874;47.230;39.620;2023-09-30T02:40:49;15.53;55.53
75281;HTU21D;63874;47.230;39.620;2023-09-30T02:43:17;15.51;55.55
75281;HTU21D;63874;47.230;39.620;2023-09-30T02:45:43;15.46;55.49
75281;HTU21D;63874;47.230;39.620;2023-09-30T02:48:09;15.46;55.62
75281;HTU21D;63874;47.230;39.620;2023-09-30T02:50:35;15.43;55.69
75281;HTU21D;63874;47.230;39.620;2023-09-30T02:53:01;15.44;55.82
75281;HTU21D;63874;47.230;39.620;2023-09-30T02:55:27;15.43;55.82
75281;HTU21D;63874;47.230;39.620;2023-09-30T02:57:53;15.43;55.84
75281;HTU21D;63874;47.230;39.620;2023-09-30T03:00:18;15.43;55.92
75281;HTU21D;63874;47.230;39.620;2023-09-30T03:02:55;15.43;56.03
75281;HTU21D;63874;47.230;39.620;2023-09-30T03:05:22;15.40;55.95
75281;HTU21D;63874;47.230;39.620;2023-09-30T03:07:49;15.36;56.00
75281;HTU21D;63874;47.230;39.620;2023-09-30T03:10:18;15.34;56.03
75281;HTU21D;63874;47.230;39.620;2023-09-30T03:12:47;15.32;56.09
75281;HTU21D;63874;47.230;39.620;2023-09-30T03:15:13;15.31;56.19
75281;HTU21D;63874;47.230;39.620;2023-09-30T03:17:40;15.27;56.25
75281;HTU21D;63874;47.230;39.620;2023-09-30T03:20:08;15.28;56.31
75281;HTU21D;63874;47.230;39.620;2023-09-30T03:22:36;15.26;56.48
75281;HTU21D;63874;47.230;39.620;2023-09-30T03:25:02;15.26;56.35
75281;HTU21D;63874;47.230;39.620;2023-09-30T03:27:28;15.27;56.50
75281;HTU21D;63874;47.230;39.620;2023-09-30T03:29:55;15.26;56.39
75281;HTU21D;63874;47.230;39.620;2023-09-30T03:32:21;15.27;56.49
75281;HTU21D;63874;47.230;39.620;2023-09-30T03:34:47;15.26;56.42
75281;HTU21D;63874;47.230;39.620;2023-09-30T03:37:13;15.26;56.46
75281;HTU21D;63874;47.230;39.620;2023-09-30T03:39:40;15.28;56.41
75281;HTU21D;63874;47.230;39.620;2023-09-30T03:42:06;15.30;56.38
75281;HTU21D;63874;47.230;39.620;2023-09-30T03:44:32;15.32;56.37
75281;HTU21D;63874;47.230;39.620;2023-09-30T03:46:58;15.38;56.33
75281;HTU21D;63874;47.230;39.620;2023-09-30T03:49:24;15.41;56.30
75281;HTU21D;63874;47.230;39.620;2023-09-30T03:51:52;15.45;56.29
75281;HTU21D;63874;47.230;39.620;2023-09-30T03:54:19;15.47;56.13
75281;HTU21D;63874;47.230;39.620;2023-09-30T03:56:45;15.54;56.07
75281;HTU21D;63874;47.230;39.620;2023-09-30T03:59:12;15.56;56.05
75281;HTU21D;63874;47.230;39.620;2023-09-30T04:01:38;15.60;55.96
75281;HTU21D;63874;47.230;39.620;2023-09-30T04:04:09;15.63;55.87
75281;HTU21D;63874;47.230;39.620;2023-09-30T04:06:36;15.68;55.83
75281;HTU21D;63874;47.230;39.620;2023-09-30T04:09:05;15.74;55.77
75281;HTU21D;63874;47.230;39.620;2023-09-30T04:11:37;15.78;55.67
75281;HTU21D;63874;47.230;39.620;2023-09-30T04:14:05;15.85;55.61
75281;HTU21D;63874;47.230;39.620;2023-09-30T04:16:31;15.89;55.49
75281;HTU21D;63874;47.230;39.620;2023-09-30T04:18:58;15.93;55.39
75281;HTU21D;63874;47.230;39.620;2023-09-30T04:21:23;15.99;55.28
75281;HTU21D;63874;47.230;39.620;2023-09-30T04:23:49;16.05;55.24
75281;HTU21D;63874;47.230;39.620;2023-09-30T04:26:15;16.11;55.16
75281;HTU21D;63874;47.230;39.620;2023-09-30T04:28:42;16.17;55.07
75281;HTU21D;63874;47.230;39.620;2023-09-30T04:31:09;16.21;55.03
75281;HTU21D;63874;47.230;39.620;2023-09-30T04:33:35;16.27;54.92
75281;HTU21D;63874;47.230;39.620;2023-09-30T04:36:01;16.34;54.90
75281;HTU21D;63874;47.230;39.620;2023-09-30T04:38:27;16.41;54.81
75281;HTU21D;63874;47.230;39.620;2023-09-30T04:40:53;16.47;54.74
75281;HTU21D;63874;47.230;39.620;2023-09-30T04:43:20;16.56;54.65
75281;HTU21D;63874;47.230;39.620;2023-09-30T04:45:48;16.64;54.60
75281;HTU21D;63874;47.230;39.620;2023-09-30T04:48:18;16.72;54.46
75281;HTU21D;63874;47.230;39.620;2023-09-30T04:50:44;16.81;54.40
75281;HTU21D;63874;47.230;39.620;2023-09-30T04:53:10;16.89;54.30
75281;HTU21D;63874;47.230;39.620;2023-09-30T04:55:41;17.00;54.19
75281;HTU21D;63874;47.230;39.620;2023-09-30T04:58:08;17.08;54.07
75281;HTU21D;63874;47.230;39.620;2023-09-30T05:00:34;17.17;53.97
75281;HTU21D;63874;47.230;39.620;2023-09-30T05:03:01;17.25;53.87
75281;HTU21D;63874;47.230;39.620;2023-09-30T05:05:26;17.35;53.78
75281;HTU21D;63874;47.230;39.620;2023-09-30T05:07:54;17.47;53.65
75281;HTU21D;63874;47.230;39.620;2023-09-30T05:10:20;17.59;53.52
75281;HTU21D;63874;47.230;39.620;2023-09-30T05:12:46;17.68;53.52
75281;HTU21D;63874;47.230;39.620;2023-09-30T05:15:13;17.82;53.42
75281;HTU21D;63874;47.230;39.620;2023-09-30T05:17:42;17.95;53.27
75281;HTU21D;63874;47.230;39.620;2023-09-30T05:20:18;18.09;53.10
75281;HTU21D;63874;47.230;39.620;2023-09-30T05:22:44;18.20;52.91
75281;HTU21D;63874;47.230;39.620;2023-09-30T05:25:16;18.35;52.72
75281;HTU21D;63874;47.230;39.620;2023-09-30T05:27:43;18.46;52.48
75281;HTU21D;63874;47.230;39.620;2023-09-30T05:30:09;18.53;52.40
75281;HTU21D;63874;47.230;39.620;2023-09-30T05:32:37;18.63;52.36
75281;HTU21D;63874;47.230;39.620;2023-09-30T05:35:05;18.72;52.19
75281;HTU21D;63874;47.230;39.620;2023-09-30T05:37:42;18.83;51.98
75281;HTU21D;63874;47.230;39.620;2023-09-30T05:40:10;18.89;51.88
75281;HTU21D;63874;47.230;39.620;2023-09-30T05:42:48;18.98;51.75
75281;HTU21D;63874;47.230;39.620;2023-09-30T05:45:16;19.07;51.68
75281;HTU21D;63874;47.230;39.620;2023-09-30T05:47:43;19.17;51.41
75281;HTU21D;63874;47.230;39.620;2023-09-30T05:50:15;19.26;51.24
75281;HTU21D;63874;47.230;39.620;2023-09-30T05:52:44;19.36;51.13
75281;HTU21D;63874;47.230;39.620;2023-09-30T05:55:11;19.45;50.90
75281;HTU21D;63874;47.230;39.620;2023-09-30T05:57:37;19.53;50.67
75281;HTU21D;63874;47.230;39.620;2023-09-30T06:00:04;19.59;50.53
75281;HTU21D;63874;47.230;39.620;2023-09-30T06:02:38;19.68;50.34
75281;HTU21D;63874;47.230;39.620;2023-09-30T06:05:06;19.76;49.85
75281;HTU21D;63874;47.230;39.620;2023-09-30T06:07:34;19.84;49.63
75281;HTU21D;63874;47.230;39.620;2023-09-30T06:09:59;19.90;49.41
75281;HTU21D;63874;47.230;39.620;2023-09-30T06:12:30;20.01;49.19
75281;HTU21D;63874;47.230;39.620;2023-09-30T06:14:55;20.11;48.65
75281;HTU21D;63874;47.230;39.620;2023-09-30T06:17:25;20.17;48.52
75281;HTU21D;63874;47.230;39.620;2023-09-30T06:19:54;20.25;48.35
75281;HTU21D;63874;47.230;39.620;2023-09-30T06:22:20;20.32;48.01
75281;HTU21D;63874;47.230;39.620;2023-09-30T06:24:47;20.36;47.69
75281;HTU21D;63874;47.230;39.620;2023-09-30T06:27:14;20.42;47.39
75281;HTU21D;63874;47.230;39.620;2023-09-30T06:29:42;20.49;47.31
75281;HTU21D;63874;47.230;39.620;2023-09-30T06:32:09;20.56;47.31
75281;HTU21D;63874;47.230;39.620;2023-09-30T06:34:37;20.64;46.96
75281;HTU21D;63874;47.230;39.620;2023-09-30T06:37:06;20.71;46.84
75281;HTU21D;63874;47.230;39.620;2023-09-30T06:39:33;20.78;46.71
75281;HTU21D;63874;47.230;39.620;2023-09-30T06:41:59;20.87;46.11
75281;HTU21D;63874;47.230;39.620;2023-09-30T06:44:25;20.92;45.90
75281;HTU21D;63874;47.230;39.620;2023-09-30T06:46:51;20.99;45.69
75281;HTU21D;63874;47.230;39.620;2023-09-30T06:49:20;21.06;45.43
75281;HTU21D;63874;47.230;39.620;2023-09-30T06:51:46;21.16;45.01
75281;HTU21D;63874;47.230;39.620;2023-09-30T06:54:13;21.25;44.91
75281;HTU21D;63874;47.230;39.620;2023-09-30T06:56:39;21.36;44.61
75281;HTU21D;63874;47.230;39.620;2023-09-30T06:59:07;21.45;44.09
75281;HTU21D;63874;47.230;39.620;2023-09-30T07:01:35;21.63;44.72
75281;HTU21D;63874;47.230;39.620;2023-09-30T07:04:02;21.91;44.67
75281;HTU21D;63874;47.230;39.620;2023-09-30T07:06:27;22.02;44.51
75281;HTU21D;63874;47.230;39.620;2023-09-30T07:08:53;22.02;44.14
75281;HTU21D;63874;47.230;39.620;2023-09-30T07:11:28;22.02;43.64
75281;HTU21D;63874;47.230;39.620;2023-09-30T07:14:00;22.02;43.17
75281;HTU21D;63874;47.230;39.620;2023-09-30T07:16:26;21.99;43.13
75281;HTU21D;63874;47.230;39.620;2023-09-30T07:18:52;22.01;43.08
75281;HTU21D;63874;47.230;39.620;2023-09-30T07:21:17;22.04;42.91
75281;HTU21D;63874;47.230;39.620;2023-09-30T07:23:43;22.06;42.67
75281;HTU21D;63874;47.230;39.620;2023-09-30T07:26:09;22.09;42.78
75281;HTU21D;63874;47.230;39.620;2023-09-30T07:28:35;22.13;42.49
75281;HTU21D;63874;47.230;39.620;2023-09-30T07:31:01;22.20;42.24
75281;HTU21D;63874;47.230;39.620;2023-09-30T07:33:26;22.23;42.23
75281;HTU21D;63874;47.230;39.620;2023-09-30T07:35:52;22.33;42.68
75281;HTU21D;63874;47.230;39.620;2023-09-30T07:38:20;22.42;42.89
75281;HTU21D;63874;47.230;39.620;2023-09-30T07:40:46;22.53;42.76
75281;HTU21D;63874;47.230;39.620;2023-09-30T07:43:11;22.62;42.50
75281;HTU21D;63874;47.230;39.620;2023-09-30T07:45:40;22.71;41.57
75281;HTU21D;63874;47.230;39.620;2023-09-30T07:48:08;22.76;42.08
75281;HTU21D;63874;47.230;39.620;2023-09-30T07:50:38;22.82;42.18
75281;HTU21D;63874;47.230;39.620;2023-09-30T07:53:06;22.93;42.34
75281;HTU21D;63874;47.230;39.620;2023-09-30T07:55:31;23.06;42.31
75281;HTU21D;63874;47.230;39.620;2023-09-30T07:57:57;23.14;41.99
75281;HTU21D;63874;47.230;39.620;2023-09-30T08:00:25;23.25;41.72
75281;HTU21D;63874;47.230;39.620;2023-09-30T08:02:51;23.34;41.81
75281;HTU21D;63874;47.230;39.620;2023-09-30T08:05:17;23.43;41.28
75281;HTU21D;63874;47.230;39.620;2023-09-30T08:07:43;23.51;41.07
75281;HTU21D;63874;47.230;39.620;2023-09-30T08:10:10;23.58;41.07
75281;HTU21D;63874;47.230;39.620;2023-09-30T08:12:39;23.67;41.16
75281;HTU21D;63874;47.230;39.620;2023-09-30T08:15:05;23.74;40.90
75281;HTU21D;63874;47.230;39.620;2023-09-30T08:17:31;23.82;39.91
75281;HTU21D;63874;47.230;39.620;2023-09-30T08:19:57;23.91;39.41
75281;HTU21D;63874;47.230;39.620;2023-09-30T08:22:23;24.00;40.33
75281;HTU21D;63874;47.230;39.620;2023-09-30T08:24:53;24.11;39.88
75281;HTU21D;63874;47.230;39.620;2023-09-30T08:27:19;24.23;39.82
75281;HTU21D;63874;47.230;39.620;2023-09-30T08:29:45;24.32;38.28
75281;HTU21D;63874;47.230;39.620;2023-09-30T08:32:12;24.35;38.16
75281;HTU21D;63874;47.230;39.620;2023-09-30T08:34:38;24.33;38.71
75281;HTU21D;63874;47.230;39.620;2023-09-30T08:37:04;24.39;38.58
75281;HTU21D;63874;47.230;39.620;2023-09-30T08:39:30;24.49;38.81
75281;HTU21D;63874;47.230;39.620;2023-09-30T08:41:55;24.62;37.49
75281;HTU21D;63874;47.230;39.620;2023-09-30T08:44:25;24.74;37.75
75281;HTU21D;63874;47.230;39.620;2023-09-30T08:46:51;24.87;37.39
75281;HTU21D;63874;47.230;39.620;2023-09-30T08:49:18;24.97;36.14
75281;HTU21D;63874;47.230;39.620;2023-09-30T08:51:44;24.99;36.33
75281;HTU21D;63874;47.230;39.620;2023-09-30T08:54:10;25.02;37.42
75281;HTU21D;63874;47.230;39.620;2023-09-30T08:56:36;25.17;37.15
75281;HTU21D;63874;47.230;39.620;2023-09-30T08:59:02;25.34;36.68
75281;HTU21D;63874;47.230;39.620;2023-09-30T09:01:29;25.50;36.64
75281;HTU21D;63874;47.230;39.620;2023-09-30T09:03:55;25.68;36.69
75281;HTU21D;63874;47.230;39.620;2023-09-30T09:06:21;26.28;35.46
75281;HTU21D;63874;47.230;39.620;2023-09-30T09:08:47;27.47;33.17
75281;HTU21D;63874;47.230;39.620;2023-09-30T09:11:13;28.71;32.68
75281;HTU21D;63874;47.230;39.620;2023-09-30T09:13:57;30.10;31.39
75281;HTU21D;63874;47.230;39.620;2023-09-30T09:16:26;31.28;27.64
75281;HTU21D;63874;47.230;39.620;2023-09-30T09:18:51;32.24;27.98
75281;HTU21D;63874;47.230;39.620;2023-09-30T09:21:19;33.12;26.88
75281;HTU21D;63874;47.230;39.620;2023-09-30T09:23:49;33.77;24.61
75281;HTU21D;63874;47.230;39.620;2023-09-30T09:26:28;34.33;24.40
75281;HTU21D;63874;47.230;39.620;2023-09-30T09:28:57;34.98;24.10
75281;HTU21D;63874;47.230;39.620;2023-09-30T09:31:26;35.64;21.95
75281;HTU21D;63874;47.230;39.620;2023-09-30T09:33:53;36.18;20.86
75281;HTU21D;63874;47.230;39.620;2023-09-30T09:36:19;36.59;20.94
75281;HTU21D;63874;47.230;39.620;2023-09-30T09:38:50;37.11;20.17
75281;HTU21D;63874;47.230;39.620;2023-09-30T09:41:22;37.37;18.48
75281;HTU21D;63874;47.230;39.620;2023-09-30T09:43:50;36.93;18.18
75281;HTU21D;63874;47.230;39.620;2023-09-30T09:46:17;36.74;18.93
75281;HTU21D;63874;47.230;39.620;2023-09-30T09:48:42;36.44;18.60
75281;HTU21D;63874;47.230;39.620;2023-09-30T09:51:11;36.41;18.66
75281;HTU21D;63874;47.230;39.620;2023-09-30T09:53:39;36.47;18.95
75281;HTU21D;63874;47.230;39.620;2023-09-30T09:56:07;37.04;19.28
75281;HTU21D;63874;47.230;39.620;2023-09-30T09:58:35;37.73;18.10
75281;HTU21D;63874;47.230;39.620;2023-09-30T10:01:05;38.45;17.67
75281;HTU21D;63874;47.230;39.620;2023-09-30T10:03:31;38.99;15.83
75281;HTU21D;63874;47.230;39.620;2023-09-30T10:05:58;39.08;16.50
75281;HTU21D;63874;47.230;39.620;2023-09-30T10:08:28;39.50;15.77
75281;HTU21D;63874;47.230;39.620;2023-09-30T10:10:56;39.48;15.21
75281;HTU21D;63874;47.230;39.620;2023-09-30T10:16:26;38.04;15.02
75281;HTU21D;63874;47.230;39.620;2023-09-30T10:21:34;37.56;16.95
75281;HTU21D;63874;47.230;39.620;2023-09-30T10:26:44;38.79;14.73
75281;HTU21D;63874;47.230;39.620;2023-09-30T10:29:09;38.44;15.71
75281;HTU21D;63874;47.230;39.620;2023-09-30T10:31:42;38.94;15.84
75281;HTU21D;63874;47.230;39.620;2023-09-30T10:34:20;39.57;14.89
75281;HTU21D;63874;47.230;39.620;2023-09-30T10:36:46;40.17;14.17
75281;HTU21D;63874;47.230;39.620;2023-09-30T10:39:13;40.48;14.39
75281;HTU21D;63874;47.230;39.620;2023-09-30T10:46:54;40.07;13.18
75281;HTU21D;63874;47.230;39.620;2023-09-30T10:51:51;36.28;16.09
75281;HTU21D;63874;47.230;39.620;2023-09-30T10:54:23;34.62;17.28
75281;HTU21D;63874;47.230;39.620;2023-09-30T10:56:50;33.19;18.73
75281;HTU21D;63874;47.230;39.620;2023-09-30T10:59:23;32.04;19.89
75281;HTU21D;63874;47.230;39.620;2023-09-30T11:01:49;31.07;21.06
75281;HTU21D;63874;47.230;39.620;2023-09-30T11:04:47;30.15;22.20
75281;HTU21D;63874;47.230;39.620;2023-09-30T11:07:16;29.41;23.20
75281;HTU21D;63874;47.230;39.620;2023-09-30T11:09:43;28.85;24.02
75281;HTU21D;63874;47.230;39.620;2023-09-30T11:12:13;28.47;24.64
75281;HTU21D;63874;47.230;39.620;2023-09-30T11:14:39;28.16;25.15
75281;HTU21D;63874;47.230;39.620;2023-09-30T11:17:06;27.90;25.59
75281;HTU21D;63874;47.230;39.620;2023-09-30T11:19:46;27.67;25.86
75281;HTU21D;63874;47.230;39.620;2023-09-30T11:22:15;27.46;26.23
75281;HTU21D;63874;47.230;39.620;2023-09-30T11:24:42;27.28;26.52
75281;HTU21D;63874;47.230;39.620;2023-09-30T11:27:08;27.10;26.70
75281;HTU21D;63874;47.230;39.620;2023-09-30T11:29:34;26.94;26.86
75281;HTU21D;63874;47.230;39.620;2023-09-30T11:32:00;26.82;27.02
75281;HTU21D;63874;47.230;39.620;2023-09-30T11:34:34;26.70;27.55
75281;HTU21D;63874;47.230;39.620;2023-09-30T11:37:00;26.63;28.01
75281;HTU21D;63874;47.230;39.620;2023-09-30T11:39:26;26.56;28.37
75281;HTU21D;63874;47.230;39.620;2023-09-30T11:41:53;26.55;28.62
75281;HTU21D;63874;47.230;39.620;2023-09-30T11:44:21;26.51;28.45
75281;HTU21D;63874;47.230;39.620;2023-09-30T11:46:54;26.49;28.55
75281;HTU21D;63874;47.230;39.620;2023-09-30T11:49:43;26.40;28.59
75281;HTU21D;63874;47.230;39.620;2023-09-30T11:52:13;26.37;28.65
75281;HTU21D;63874;47.230;39.620;2023-09-30T11:54:42;26.36;28.65
75281;HTU21D;63874;47.230;39.620;2023-09-30T11:57:08;26.32;28.68
75281;HTU21D;63874;47.230;39.620;2023-09-30T11:59:35;26.31;28.70
75281;HTU21D;63874;47.230;39.620;2023-09-30T12:02:02;26.26;28.80
75281;HTU21D;63874;47.230;39.620;2023-09-30T12:04:29;26.27;28.87
75281;HTU21D;63874;47.230;39.620;2023-09-30T12:06:55;26.31;28.93
75281;HTU21D;63874;47.230;39.620;2023-09-30T12:09:24;26.30;28.78
75281;HTU21D;63874;47.230;39.620;2023-09-30T12:11:56;26.26;28.87
75281;HTU21D;63874;47.230;39.620;2023-09-30T12:14:25;26.27;28.76
75281;HTU21D;63874;47.230;39.620;2023-09-30T12:16:53;26.25;28.74
75281;HTU21D;63874;47.230;39.620;2023-09-30T12:19:20;26.24;28.58
75281;HTU21D;63874;47.230;39.620;2023-09-30T12:21:47;26.19;28.68
75281;HTU21D;63874;47.230;39.620;2023-09-30T12:24:13;26.18;28.81
75281;HTU21D;63874;47.230;39.620;2023-09-30T12:26:44;26.17;29.00
75281;HTU21D;63874;47.230;39.620;2023-09-30T12:29:20;26.16;28.93
75281;HTU21D;63874;47.230;39.620;2023-09-30T12:31:50;26.11;28.97
75281;HTU21D;63874;47.230;39.620;2023-09-30T12:34:16;26.08;29.01
75281;HTU21D;63874;47.230;39.620;2023-09-30T12:36:42;26.04;29.10
75281;HTU21D;63874;47.230;39.620;2023-09-30T12:39:08;26.02;29.09
75281;HTU21D;63874;47.230;39.620;2023-09-30T12:41:40;25.99;29.08
75281;HTU21D;63874;47.230;39.620;2023-09-30T12:44:06;25.97;28.97
75281;HTU21D;63874;47.230;39.620;2023-09-30T12:46:32;25.98;28.90
75281;HTU21D;63874;47.230;39.620;2023-09-30T12:49:01;25.95;29.11
75281;HTU21D;63874;47.230;39.620;2023-09-30T12:51:27;25.91;29.23
75281;HTU21D;63874;47.230;39.620;2023-09-30T12:53:53;25.91;28.97
75281;HTU21D;63874;47.230;39.620;2023-09-30T12:56:19;25.88;29.03
75281;HTU21D;63874;47.230;39.620;2023-09-30T12:58:46;25.83;29.13
75281;HTU21D;63874;47.230;39.620;2023-09-30T13:01:12;25.79;29.33
75281;HTU21D;63874;47.230;39.620;2023-09-30T13:03:37;25.75;29.48
75281;HTU21D;63874;47.230;39.620;2023-09-30T13:06:04;25.76;29.54
75281;HTU21D;63874;47.230;39.620;2023-09-30T13:08:31;25.74;29.63
75281;HTU21D;63874;47.230;39.620;2023-09-30T13:11:02;25.74;29.82
75281;HTU21D;63874;47.230;39.620;2023-09-30T13:13:31;25.71;29.70
75281;HTU21D;63874;47.230;39.620;2023-09-30T13:15:59;25.67;29.77
75281;HTU21D;63874;47.230;39.620;2023-09-30T13:18:24;25.65;29.76
75281;HTU21D;63874;47.230;39.620;2023-09-30T13:20:50;25.63;29.84
75281;HTU21D;63874;47.230;39.620;2023-09-30T13:23:20;25.61;29.92
75281;HTU21D;63874;47.230;39.620;2023-09-30T13:25:45;25.54;30.04
75281;HTU21D;63874;47.230;39.620;2023-09-30T13:28:11;25.51;30.17
75281;HTU21D;63874;47.230;39.620;2023-09-30T13:30:37;25.47;30.29
75281;HTU21D;63874;47.230;39.620;2023-09-30T13:33:03;25.40;30.34
75281;HTU21D;63874;47.230;39.620;2023-09-30T13:35:29;25.37;30.35
75281;HTU21D;63874;47.230;39.620;2023-09-30T13:37:54;25.37;30.36
75281;HTU21D;63874;47.230;39.620;2023-09-30T13:40:20;25.36;30.44
75281;HTU21D;63874;47.230;39.620;2023-09-30T13:42:47;25.34;30.47
75281;HTU21D;63874;47.230;39.620;2023-09-30T13:45:13;25.31;30.47
75281;HTU21D;63874;47.230;39.620;2023-09-30T13:47:43;25.31;30.66
75281;HTU21D;63874;47.230;39.620;2023-09-30T13:50:10;25.27;30.71
75281;HTU21D;63874;47.230;39.620;2023-09-30T13:52:36;25.24;30.80
75281;HTU21D;63874;47.230;39.620;2023-09-30T13:55:02;25.21;30.84
75281;HTU21D;63874;47.230;39.620;2023-09-30T13:57:32;25.19;30.88
75281;HTU21D;63874;47.230;39.620;2023-09-30T13:59:58;25.16;31.03
75281;HTU21D;63874;47.230;39.620;2023-09-30T14:02:24;25.09;31.17
75281;HTU21D;63874;47.230;39.620;2023-09-30T14:04:51;25.02;31.32
75281;HTU21D;63874;47.230;39.620;2023-09-30T14:07:19;24.98;31.38
75281;HTU21D;63874;47.230;39.620;2023-09-30T14:09:45;24.92;31.52
75281;HTU21D;63874;47.230;39.620;2023-09-30T14:12:11;24.88;31.70
75281;HTU21D;63874;47.230;39.620;2023-09-30T14:14:40;24.80;31.84
75281;HTU21D;63874;47.230;39.620;2023-09-30T14:17:06;24.73;32.05
75281;HTU21D;63874;47.230;39.620;2023-09-30T14:19:37;24.65;32.19
75281;HTU21D;63874;47.230;39.620;2023-09-30T14:22:04;24.57;32.32
75281;HTU21D;63874;47.230;39.620;2023-09-30T14:24:34;24.55;32.48
75281;HTU21D;63874;47.230;39.620;2023-09-30T14:27:02;24.50;32.56
75281;HTU21D;63874;47.230;39.620;2023-09-30T14:29:29;24.46;32.76
75281;HTU21D;63874;47.230;39.620;2023-09-30T14:31:57;24.40;32.83
75281;HTU21D;63874;47.230;39.620;2023-09-30T14:34:24;24.33;32.99
75281;HTU21D;63874;47.230;39.620;2023-09-30T14:36:50;24.28;33.09
75281;HTU21D;63874;47.230;39.620;2023-09-30T14:39:17;24.24;33.13
75281;HTU21D;63874;47.230;39.620;2023-09-30T14:41:44;24.17;33.28
75281;HTU21D;63874;47.230;39.620;2023-09-30T14:44:13;24.14;33.34
75281;HTU21D;63874;47.230;39.620;2023-09-30T14:46:39;24.06;33.63
75281;HTU21D;63874;47.230;39.620;2023-09-30T14:49:05;23.97;33.72
75281;HTU21D;63874;47.230;39.620;2023-09-30T14:51:36;23.88;33.88
75281;HTU21D;63874;47.230;39.620;2023-09-30T14:54:03;23.79;34.20
75281;HTU21D;63874;47.230;39.620;2023-09-30T14:56:31;23.70;34.31
75281;HTU21D;63874;47.230;39.620;2023-09-30T14:58:56;23.61;34.49
75281;HTU21D;63874;47.230;39.620;2023-09-30T15:01:26;23.53;34.68
75281;HTU21D;63874;47.230;39.620;2023-09-30T15:03:52;23.43;34.93
75281;HTU21D;63874;47.230;39.620;2023-09-30T15:06:19;23.34;35.06
75281;HTU21D;63874;47.230;39.620;2023-09-30T15:08:48;23.28;35.24
75281;HTU21D;63874;47.230;39.620;2023-09-30T15:11:15;23.20;35.34
75281;HTU21D;63874;47.230;39.620;2023-09-30T15:13:41;23.12;35.54
75281;HTU21D;63874;47.230;39.620;2023-09-30T15:16:22;23.06;35.52
75281;HTU21D;63874;47.230;39.620;2023-09-30T15:18:49;22.96;35.71
75281;HTU21D;63874;47.230;39.620;2023-09-30T15:21:16;22.88;35.92